Time;durP1;ratioP1;P1;durP2;ratioP2;P2;SDS_P1;SDS_P2;PMS_P1;PMS_P2;Temp;Humidity;BMP_temperature;BMP_pressure;BME280_temperature;BME280_humidity;BME280_pressure;Samples;Min_cycle;Max_cycle;Signal;HPM_P1;HPM_P2
2022/03/01 00:02:08;;;;;;;;;13.00;13.00;;;;;18.72;26.68;102166.56;5093488;27;45506;-51
2022/03/01 00:04:33;;;;;;;;;16.75;15.25;;;;;18.72;26.74;102156.06;5077708;27;45355;-53
2022/03/01 00:06:59;;;;;;;;;16.00;14.25;;;;;18.72;26.76;102160.47;5077779;27;45503;-49
2022/03/01 00:09:24;;;;;;;;;17.50;14.50;;;;;18.69;26.78;102161.38;5077445;27;46315;-55
2022/03/01 00:11:49;;;;;;;;;18.50;12.25;;;;;18.70;26.76;102155.22;5077495;27;45419;-56
2022/03/01 00:14:15;;;;;;;;;16.00;14.25;;;;;18.69;26.84;102156.13;5077826;27;45260;-51
2022/03/01 00:16:40;;;;;;;;;18.25;15.50;;;;;18.68;26.80;102157.06;5077628;27;45428;-56
2022/03/01 00:19:06;;;;;;;;;15.00;14.75;;;;;18.65;26.84;102152.72;5077429;27;45432;-53
2022/03/01 00:21:31;;;;;;;;;11.50;11.50;;;;;18.67;26.70;102158.81;5077252;27;45393;-52
2022/03/01 00:23:57;;;;;;;;;19.50;19.50;;;;;18.71;26.84;102159.56;5076148;27;45422;-49
2022/03/01 00:26:23;;;;;;;;;15.00;14.50;;;;;18.74;26.81;102159.50;5077535;27;45398;-54
2022/03/01 00:28:49;;;;;;;;;17.25;15.50;;;;;18.78;26.63;102158.53;5077500;27;45322;-55
2022/03/01 00:31:15;;;;;;;;;15.25;12.50;;;;;18.85;26.73;102140.84;5077500;27;45241;-53
2022/03/01 00:33:41;;;;;;;;;16.00;15.50;;;;;18.91;26.88;102145.03;5077318;27;45288;-55
2022/03/01 00:36:06;;;;;;;;;18.25;15.25;;;;;18.99;26.93;102135.22;5077511;27;45357;-51
2022/03/01 00:38:32;;;;;;;;;15.00;13.50;;;;;19.06;26.76;102136.78;5077246;27;46208;-52
2022/03/01 00:40:57;;;;;;;;;14.25;14.25;;;;;19.12;26.59;102138.38;5077061;27;45540;-51
2022/03/01 00:43:23;;;;;;;;;16.75;15.75;;;;;19.16;26.56;102130.34;5077191;27;45306;-54
2022/03/01 00:45:52;;;;;;;;;12.25;12.25;;;;;19.26;26.63;102124.81;5077511;27;45421;-52
2022/03/01 00:48:18;;;;;;;;;15.75;15.00;;;;;19.30;26.44;102129.09;5077175;27;45380;-54
2022/03/01 00:50:44;;;;;;;;;13.75;13.75;;;;;19.37;26.63;102133.25;5076951;27;45448;-52
2022/03/01 00:53:09;;;;;;;;;15.25;13.25;;;;;19.44;26.20;102136.56;5077008;28;45445;-53
2022/03/01 00:55:35;;;;;;;;;19.75;14.75;;;;;19.49;26.65;102150.44;5077163;27;45224;-52
2022/03/01 00:58:01;;;;;;;;;16.25;15.00;;;;;19.53;26.18;102148.56;5076420;27;46286;-54
2022/03/01 01:00:28;;;;;;;;;16.00;16.00;;;;;19.58;26.21;102150.16;5076929;27;45860;-53
2022/03/01 01:02:54;;;;;;;;;16.75;14.00;;;;;19.63;26.05;102157.91;5076962;27;45381;-54
2022/03/01 01:05:20;;;;;;;;;15.25;13.75;;;;;19.67;26.47;102156.91;5077219;27;45346;-55
2022/03/01 01:07:45;;;;;;;;;15.25;14.00;;;;;19.68;26.46;102153.34;5076696;27;45334;-53
2022/03/01 01:10:11;;;;;;;;;14.50;13.50;;;;;19.73;26.40;102147.97;5076825;27;45919;-52
2022/03/01 01:12:37;;;;;;;;;17.75;16.75;;;;;19.75;26.28;102143.50;5076821;27;45506;-53
2022/03/01 01:15:06;;;;;;;;;12.75;12.75;;;;;19.77;25.90;102142.56;5076760;27;45426;-52
2022/03/01 01:17:31;;;;;;;;;15.75;14.25;;;;;19.78;26.54;102128.50;5076395;27;45347;-54
2022/03/01 01:19:57;;;;;;;;;15.00;14.25;;;;;19.79;26.41;102126.72;5076603;27;45520;-53
2022/03/01 01:22:40;;;;;;;;;15.50;13.50;;;;;19.82;26.06;102123.13;5075372;28;45338;-53
2022/03/01 01:25:21;;;;;;;;;14.50;14.50;;;;;19.82;26.17;102128.38;5076520;27;45251;-54
2022/03/01 01:27:48;;;;;;;;;14.50;13.75;;;;;19.83;26.21;102138.00;5076637;27;46197;-52
2022/03/01 01:30:19;;;;;;;;;17.75;16.00;;;;;19.82;25.92;102131.00;5076340;27;45268;-53
2022/03/01 01:32:47;;;;;;;;;16.75;14.00;;;;;19.82;26.00;102128.38;5076582;27;45322;-52
2022/03/01 01:35:12;;;;;;;;;15.50;12.75;;;;;19.81;26.13;102116.13;5076633;27;45569;-53
2022/03/01 01:37:39;;;;;;;;;15.75;15.25;;;;;19.83;26.28;102120.47;5091937;27;48793;-53
2022/03/01 01:40:07;;;;;;;;;13.75;13.00;;;;;19.83;25.86;102116.94;5074965;28;46097;-53
2022/03/01 01:42:32;;;;;;;;;14.00;13.50;;;;;19.82;26.12;102112.59;5076353;27;45442;-54
2022/03/01 01:44:58;;;;;;;;;15.25;14.25;;;;;19.83;25.83;102119.59;5076284;27;45555;-54
2022/03/01 01:47:23;;;;;;;;;21.25;16.75;;;;;19.81;25.78;102117.00;5075999;28;46185;-54
2022/03/01 01:49:49;;;;;;;;;18.00;16.25;;;;;19.82;26.17;102128.38;5076433;27;45267;-54
2022/03/01 01:52:14;;;;;;;;;14.00;12.75;;;;;19.83;25.82;102124.84;5076199;28;45456;-53
2022/03/01 01:54:40;;;;;;;;;17.50;14.75;;;;;19.78;25.80;102123.25;5092155;27;45386;-55
2022/03/01 01:57:16;;;;;;;;;14.25;12.00;;;;;19.81;26.31;102127.53;5075994;27;47324;-54
2022/03/01 01:59:42;;;;;;;;;16.00;14.75;;;;;19.78;25.79;102127.63;5075974;27;45967;-52
2022/03/01 02:02:10;;;;;;;;;17.25;15.50;;;;;19.79;26.27;102134.63;5076185;27;45286;-51
2022/03/01 02:04:36;;;;;;;;;13.50;13.00;;;;;19.77;26.04;102133.78;5076195;27;45530;-54
2022/03/01 02:07:01;;;;;;;;;14.00;14.00;;;;;19.75;25.85;102127.72;5075701;27;45300;-53
2022/03/01 02:09:26;;;;;;;;;17.50;16.00;;;;;19.74;26.21;102129.50;5076802;27;45334;-55
2022/03/01 02:11:52;;;;;;;;;20.75;17.50;;;;;19.74;26.15;102136.50;5079816;27;45161;-53
2022/03/01 02:14:17;;;;;;;;;15.50;12.50;;;;;19.71;26.06;102132.22;5079335;27;45452;-55
2022/03/01 02:16:42;;;;;;;;;15.50;14.50;;;;;19.68;25.99;102126.19;5079407;27;45437;-55
2022/03/01 02:19:11;;;;;;;;;18.25;13.75;;;;;19.68;26.12;102132.31;5079010;27;53112;-56
2022/03/01 02:21:44;;;;;;;;;18.50;15.25;;;;;19.66;26.52;102131.50;5079453;27;45273;-50
2022/03/01 02:24:09;;;;;;;;;17.50;14.50;;;;;19.61;25.89;102126.41;5079461;27;45296;-54
2022/03/01 02:26:34;;;;;;;;;17.50;15.25;;;;;19.62;26.20;102127.25;5079201;27;45906;-55
2022/03/01 02:29:00;;;;;;;;;15.50;13.50;;;;;19.61;25.89;102125.53;5079175;27;45432;-53
2022/03/01 02:31:25;;;;;;;;;17.75;15.75;;;;;19.60;26.07;102126.44;5079474;27;45362;-55
2022/03/01 02:33:50;;;;;;;;;14.50;14.50;;;;;19.59;26.19;102119.44;5079663;28;45322;-54
2022/03/01 02:36:16;;;;;;;;;16.75;15.75;;;;;19.57;26.19;102126.50;5079020;27;45375;-51
2022/03/01 02:38:41;;;;;;;;;16.00;14.50;;;;;19.55;26.02;102125.72;5079027;27;45326;-52
2022/03/01 02:41:06;;;;;;;;;16.75;16.75;;;;;19.52;26.59;102121.41;5079041;27;45357;-53
2022/03/01 02:43:32;;;;;;;;;20.00;18.25;;;;;19.47;26.36;102121.53;5079290;27;45435;-53
2022/03/01 02:45:57;;;;;;;;;17.00;15.50;;;;;19.49;26.19;102126.78;5078829;27;45812;-54
2022/03/01 02:48:22;;;;;;;;;22.33;15.33;;;;;19.48;26.16;102125.06;5079060;27;48220;-53
2022/03/01 02:50:48;;;;;;;;;15.25;14.00;;;;;19.44;26.08;102118.16;5078982;27;45211;-55
2022/03/01 02:53:13;;;;;;;;;16.00;14.25;;;;;19.43;26.75;102125.19;5077798;27;45477;-52
2022/03/01 02:55:38;;;;;;;;;20.25;15.75;;;;;19.43;26.59;102126.94;5077485;28;46150;-53
2022/03/01 02:58:04;;;;;;;;;13.50;13.25;;;;;19.41;26.65;102127.00;5078884;27;45310;-55
2022/03/01 03:00:29;;;;;;;;;22.75;17.25;;;;;19.39;26.71;102126.19;5079010;27;45306;-54
2022/03/01 03:02:54;;;;;;;;;14.50;12.75;;;;;19.37;26.50;102135.88;5079423;27;45665;-54
2022/03/01 03:05:20;;;;;;;;;17.25;15.00;;;;;19.36;26.39;102131.50;5077515;28;45359;-53
2022/03/01 03:07:45;;;;;;;;;18.75;16.50;;;;;19.35;26.42;102140.31;5078729;27;45191;-52
2022/03/01 03:10:11;;;;;;;;;19.00;17.75;;;;;19.32;26.28;102135.16;5078908;27;45215;-53
2022/03/01 03:12:37;;;;;;;;;15.50;15.50;;;;;19.30;26.42;102137.81;5079108;27;45589;-54
2022/03/01 03:15:04;;;;;;;;;17.50;15.75;;;;;19.30;26.49;102131.72;5076908;27;46925;-55
2022/03/01 03:17:30;;;;;;;;;19.25;16.25;;;;;19.27;26.59;102121.28;5078572;27;45408;-54
2022/03/01 03:19:55;;;;;;;;;16.25;16.00;;;;;19.25;26.64;102123.09;5078564;27;45907;-55
2022/03/01 03:22:20;;;;;;;;;18.75;17.25;;;;;19.23;26.59;102127.56;5078520;27;45439;-53
2022/03/01 03:24:46;;;;;;;;;19.25;15.25;;;;;19.22;26.88;102128.47;5078176;27;46452;-53
2022/03/01 03:27:11;;;;;;;;;18.25;16.25;;;;;19.19;26.45;102126.75;5078277;27;45546;-53
2022/03/01 03:29:37;;;;;;;;;22.75;18.25;;;;;19.16;26.70;102121.59;5078352;27;45310;-51
2022/03/01 03:32:02;;;;;;;;;19.75;17.00;;;;;19.13;26.70;102122.53;5077495;28;45430;-53
2022/03/01 03:34:28;;;;;;;;;22.25;17.50;;;;;19.12;26.75;102118.22;5078210;27;46043;-50
2022/03/01 03:36:53;;;;;;;;;21.75;19.50;;;;;19.11;26.78;102118.25;5078597;27;45286;-53
2022/03/01 03:39:19;;;;;;;;;20.50;17.00;;;;;19.11;26.46;102123.50;5076880;27;45330;-54
2022/03/01 03:41:44;;;;;;;;;6.00;3.50;;;;;19.08;26.51;102127.09;5078281;27;45577;-53
2022/03/01 03:44:10;;;;;;;;;19.00;16.00;;;;;19.07;26.71;102121.88;5077784;27;46140;-51
2022/03/01 03:46:35;;;;;;;;;20.50;18.50;;;;;19.06;26.79;102115.75;5077849;27;45365;-54
2022/03/01 03:49:01;;;;;;;;;21.50;20.75;;;;;19.04;26.99;102117.56;5077902;27;45448;-54
2022/03/01 03:51:27;;;;;;;;;21.50;20.50;;;;;19.01;26.72;102109.78;5078402;27;45207;-54
2022/03/01 03:53:52;;;;;;;;;19.25;19.00;;;;;18.99;27.00;102111.59;5077683;27;45505;-52
2022/03/01 03:56:18;;;;;;;;;19.00;19.00;;;;;19.00;26.83;102113.31;5077742;27;45513;-54
2022/03/01 03:58:44;;;;;;;;;21.00;20.50;;;;;18.96;26.91;102116.91;5078016;27;45280;-53
2022/03/01 04:01:09;;;;;;;;;19.25;17.25;;;;;18.95;26.69;102115.19;5078014;27;45363;-52
2022/03/01 04:03:35;;;;;;;;;19.00;18.25;;;;;18.93;27.02;102112.63;5077491;27;46477;-55
2022/03/01 04:06:00;;;;;;;;;22.25;19.75;;;;;18.92;27.12;102117.88;5077506;27;45399;-54
2022/03/01 04:08:25;;;;;;;;;21.50;19.75;;;;;18.90;27.09;102112.66;5078048;27;45433;-53
2022/03/01 04:10:51;;;;;;;;;17.50;16.25;;;;;18.88;26.78;102105.75;5077791;27;45559;-53
2022/03/01 04:13:16;;;;;;;;;20.00;19.00;;;;;18.85;27.03;102094.41;5077553;27;45403;-54
2022/03/01 04:15:42;;;;;;;;;16.00;14.75;;;;;18.85;27.10;102099.66;5077276;27;45438;-54
2022/03/01 04:18:07;;;;;;;;;24.50;20.00;;;;;18.83;26.92;102095.38;5077567;27;45504;-52
2022/03/01 04:20:33;;;;;;;;;22.25;20.25;;;;;18.82;27.12;102089.22;5077631;27;45480;-49
2022/03/01 04:22:59;;;;;;;;;25.25;23.25;;;;;18.78;26.93;102081.47;5077620;27;45931;-56
2022/03/01 04:25:24;;;;;;;;;17.00;16.25;;;;;18.79;26.95;102094.59;5075829;27;46206;-53
2022/03/01 04:27:50;;;;;;;;;22.75;19.50;;;;;18.78;27.04;102094.63;5077522;27;45322;-53
2022/03/01 04:30:16;;;;;;;;;17.00;16.75;;;;;18.76;27.09;102094.66;5077509;28;45314;-54
2022/03/01 04:32:43;;;;;;;;;20.25;20.25;;;;;18.76;26.93;102110.44;5076261;28;46170;-53
2022/03/01 04:35:10;;;;;;;;;17.75;17.00;;;;;18.76;27.25;102107.81;5077179;28;45900;-52
2022/03/01 04:37:36;;;;;;;;;19.00;17.75;;;;;18.74;27.10;102114.00;5077327;27;45299;-55
2022/03/01 04:40:04;;;;;;;;;22.75;16.50;;;;;18.74;27.08;102106.97;5077360;27;45523;-54
2022/03/01 04:42:30;;;;;;;;;25.00;21.25;;;;;18.73;27.23;102110.50;5077221;28;46241;-53
2022/03/01 04:44:55;;;;;;;;;23.75;22.75;;;;;18.73;27.12;102110.50;5075684;28;45800;-56
2022/03/01 04:47:20;;;;;;;;;24.00;19.25;;;;;18.69;27.23;102101.84;5077136;27;45408;-56
2022/03/01 04:49:46;;;;;;;;;23.50;19.25;;;;;18.70;27.09;102108.84;5077267;27;45744;-56
2022/03/01 04:52:11;;;;;;;;;24.75;19.50;;;;;18.71;27.02;102112.31;5076924;27;45398;-56
2022/03/01 04:54:37;;;;;;;;;26.00;21.75;;;;;18.69;27.13;102122.84;5076826;27;45238;-55
2022/03/01 04:57:02;;;;;;;;;18.25;17.00;;;;;18.69;26.91;102119.34;5077201;27;45645;-54
2022/03/01 04:59:27;;;;;;;;;19.25;18.25;;;;;18.68;27.16;102113.25;5077398;27;45554;-54
2022/03/01 05:01:53;;;;;;;;;26.25;21.50;;;;;18.66;27.32;102104.56;5076661;27;46246;-56
2022/03/01 05:04:18;;;;;;;;;25.25;19.25;;;;;18.66;27.26;102103.72;5076527;27;45247;-55
2022/03/01 05:06:44;;;;;;;;;20.50;18.00;;;;;18.71;27.13;102107.06;5075490;27;45477;-52
2022/03/01 05:09:09;;;;;;;;;19.75;17.50;;;;;18.74;27.03;102101.72;5075629;27;45437;-57
2022/03/01 05:11:35;;;;;;;;;20.50;16.50;;;;;18.80;27.29;102101.53;5075379;28;48110;-54
2022/03/01 05:14:01;;;;;;;;;20.75;20.75;;;;;18.83;27.01;102096.22;5076948;27;46010;-54
2022/03/01 05:16:26;;;;;;;;;21.25;18.75;;;;;18.93;27.08;102095.94;5076884;27;45796;-53
2022/03/01 05:18:51;;;;;;;;;18.25;18.25;;;;;19.01;26.79;102094.00;5076858;27;45644;-57
2022/03/01 05:21:17;;;;;;;;;16.25;16.25;;;;;19.04;26.66;102088.66;5076527;27;45393;-53
2022/03/01 05:23:42;;;;;;;;;22.00;17.50;;;;;19.13;26.72;102098.88;5076315;27;45316;-53
2022/03/01 05:26:07;;;;;;;;;21.75;19.25;;;;;19.21;27.05;102103.06;5076591;27;45188;-53
2022/03/01 05:28:33;;;;;;;;;18.00;17.00;;;;;19.27;27.05;102097.63;5077035;27;45375;-53
2022/03/01 05:30:58;;;;;;;;;15.50;15.50;;;;;19.30;26.90;102093.13;5076710;27;46545;-56
2022/03/01 05:33:24;;;;;;;;;21.00;19.33;;;;;19.36;26.83;102089.47;5075950;27;56031;-54
2022/03/01 05:35:49;;;;;;;;;18.75;15.50;;;;;19.43;27.03;102092.75;5076549;27;45344;-53
2022/03/01 05:38:15;;;;;;;;;18.50;15.75;;;;;19.47;26.79;102091.78;5076525;27;45545;-52
2022/03/01 05:40:40;;;;;;;;;15.75;14.50;;;;;19.55;26.74;102099.44;5076220;28;45419;-54
2022/03/01 05:43:06;;;;;;;;;20.75;15.50;;;;;19.60;26.46;102097.50;5076631;28;45311;-52
2022/03/01 05:45:32;;;;;;;;;17.00;17.00;;;;;19.64;26.80;102099.13;5080253;27;45330;-54
2022/03/01 05:47:58;;;;;;;;;18.25;17.75;;;;;19.68;26.44;102103.38;5080181;27;45364;-52
2022/03/01 05:50:24;;;;;;;;;19.25;18.00;;;;;19.72;26.76;102101.53;5079665;27;46169;-55
2022/03/01 05:52:50;;;;;;;;;18.75;16.50;;;;;19.74;26.64;102094.41;5079712;27;45829;-52
2022/03/01 05:55:15;;;;;;;;;19.50;17.50;;;;;19.74;26.60;102084.78;5079747;28;45256;-52
2022/03/01 05:57:41;;;;;;;;;19.50;17.50;;;;;19.78;26.12;102088.16;5079949;27;45528;-55
2022/03/01 06:00:09;;;;;;;;;17.00;17.00;;;;;19.81;26.61;102089.84;5079483;27;46083;-53
2022/03/01 06:02:35;;;;;;;;;20.00;18.25;;;;;19.81;26.21;102089.84;5080070;27;45785;-52
2022/03/01 06:05:00;;;;;;;;;16.50;15.25;;;;;19.82;26.53;102087.16;5079890;27;45690;-52
2022/03/01 06:07:26;;;;;;;;;16.75;15.25;;;;;19.83;26.59;102088.00;5079781;28;45153;-55
2022/03/01 06:09:51;;;;;;;;;19.50;16.75;;;;;19.83;26.47;102085.38;5079593;27;45359;-52
2022/03/01 06:12:17;;;;;;;;;13.75;12.25;;;;;19.85;26.72;102091.47;5079522;27;45492;-53
2022/03/01 06:14:42;;;;;;;;;18.00;16.75;;;;;19.84;26.38;102089.75;5078336;27;45316;-53
2022/03/01 06:17:08;;;;;;;;;21.25;18.00;;;;;19.82;26.08;102092.44;5079667;27;45377;-52
2022/03/01 06:19:34;;;;;;;;;16.75;16.25;;;;;19.86;25.85;102101.09;5079622;28;46202;-54
2022/03/01 06:22:00;;;;;;;;;16.25;14.75;;;;;19.84;25.93;102092.38;5079280;27;45375;-52
2022/03/01 06:24:26;;;;;;;;;15.00;14.00;;;;;19.86;26.38;102095.84;5078036;27;45466;-50
2022/03/01 06:26:51;;;;;;;;;17.25;14.50;;;;;19.86;25.87;102099.31;5079420;27;45535;-55
2022/03/01 06:29:16;;;;;;;;;19.50;16.00;;;;;19.85;26.10;102101.97;5079062;27;45906;-55
2022/03/01 06:31:42;;;;;;;;;20.00;15.25;;;;;19.84;26.21;102105.53;5079140;27;45371;-53
2022/03/01 06:34:07;;;;;;;;;18.75;16.25;;;;;19.85;26.21;102123.03;5079322;27;45423;-54
2022/03/01 06:36:33;;;;;;;;;21.00;17.50;;;;;19.84;25.73;102113.41;5079719;27;45254;-53
2022/03/01 06:38:58;;;;;;;;;18.25;15.25;;;;;19.83;26.17;102125.72;5078936;27;45643;-53
2022/03/01 06:41:24;;;;;;;;;17.75;16.50;;;;;19.83;26.25;102120.47;5079063;27;45274;-55
2022/03/01 06:43:49;;;;;;;;;17.75;17.50;;;;;19.82;25.85;102129.25;5079053;27;45600;-55
2022/03/01 06:46:14;;;;;;;;;22.67;18.33;;;;;19.81;26.12;102117.00;5079180;27;45593;-51
2022/03/01 06:48:40;;;;;;;;;17.25;17.25;;;;;19.78;25.69;102123.25;5078862;27;46025;-54
2022/03/01 06:51:07;;;;;;;;;19.50;16.50;;;;;19.76;25.84;102129.44;5079217;27;45231;-53
2022/03/01 06:53:34;;;;;;;;;17.25;16.50;;;;;19.76;26.21;102134.69;5079071;27;45322;-51
2022/03/01 06:55:59;;;;;;;;;14.50;14.00;;;;;19.70;26.15;102130.50;5078457;27;45552;-51
2022/03/01 06:58:25;;;;;;;;;16.75;15.00;;;;;19.71;26.24;102131.38;5078607;28;45405;-54
2022/03/01 07:00:50;;;;;;;;;14.00;13.75;;;;;19.70;26.50;102140.16;5078654;27;45407;-53
2022/03/01 07:03:16;;;;;;;;;18.25;15.75;;;;;19.66;26.27;102128.88;5078838;27;45424;-55
2022/03/01 07:05:41;;;;;;;;;18.25;13.50;;;;;19.66;26.33;102134.16;5078691;27;45495;-54
2022/03/01 07:08:08;;;;;;;;;8.25;6.75;;;;;19.64;26.32;102135.97;5078807;27;46224;-53
2022/03/01 07:10:34;;;;;;;;;16.50;16.25;;;;;19.62;25.91;102137.78;5078769;27;45194;-53
2022/03/01 07:12:59;;;;;;;;;20.00;16.00;;;;;19.62;26.57;102143.88;5078628;28;45230;-50
2022/03/01 07:15:24;;;;;;;;;23.00;16.75;;;;;19.59;26.25;102137.84;5078550;27;45402;-53
2022/03/01 07:17:50;;;;;;;;;17.25;15.75;;;;;19.59;26.35;102144.00;5078227;27;45884;-54
2022/03/01 07:20:15;;;;;;;;;17.00;16.25;;;;;19.58;26.06;102150.16;5078447;27;45283;-50
2022/03/01 07:22:41;;;;;;;;;15.25;15.25;;;;;19.56;26.43;102153.75;5078531;27;45299;-52
2022/03/01 07:25:07;;;;;;;;;13.00;13.00;;;;;19.53;26.49;102143.31;5078852;27;45603;-53
2022/03/01 07:27:33;;;;;;;;;19.00;15.00;;;;;19.53;26.64;102146.78;5076791;28;47366;-52
2022/03/01 07:29:59;;;;;;;;;19.25;17.00;;;;;19.51;26.52;102145.13;5078148;27;45370;-53
2022/03/01 07:32:25;;;;;;;;;17.00;16.50;;;;;19.49;26.55;102142.56;5078322;27;45311;-53
2022/03/01 07:34:50;;;;;;;;;15.50;13.25;;;;;19.44;26.60;102140.06;5077059;27;45404;-52
2022/03/01 07:37:16;;;;;;;;;18.50;15.00;;;;;19.45;26.31;102143.53;5077979;27;45366;-49
2022/03/01 07:39:41;;;;;;;;;17.75;17.00;;;;;19.44;26.25;102145.31;5078058;27;45491;-52
2022/03/01 07:42:07;;;;;;;;;14.75;14.00;;;;;19.41;26.48;102145.41;5078565;27;45385;-52
2022/03/01 07:44:36;;;;;;;;;15.75;15.75;;;;;19.39;26.75;102141.94;5076824;27;45340;-52
2022/03/01 07:47:05;;;;;;;;;17.25;15.25;;;;;19.36;26.22;102142.03;5077888;27;46281;-52
2022/03/01 07:49:30;;;;;;;;;16.50;16.50;;;;;19.37;26.60;102146.38;5077835;27;45740;-52
2022/03/01 07:51:55;;;;;;;;;18.50;17.50;;;;;19.33;26.59;102136.00;5078129;27;45385;-53
2022/03/01 07:54:21;;;;;;;;;18.00;15.50;;;;;19.33;26.42;102142.16;5078183;27;45330;-51
2022/03/01 07:56:46;;;;;;;;;15.75;15.25;;;;;19.29;26.45;102141.34;5077649;27;46050;-50
2022/03/01 07:59:11;;;;;;;;;22.00;17.50;;;;;19.30;26.23;102147.47;5077814;27;45501;-46
2022/03/01 08:01:37;;;;;;;;;14.50;13.50;;;;;19.29;26.65;102141.34;5078195;27;45372;-54
2022/03/01 08:04:02;;;;;;;;;17.00;15.00;;;;;19.28;26.69;102138.78;5077843;27;45325;-54
2022/03/01 08:06:27;;;;;;;;;21.75;15.50;;;;;19.27;26.80;102142.31;5076851;27;45969;-54
2022/03/01 08:08:53;;;;;;;;;18.50;14.50;;;;;19.22;26.59;102145.06;5077094;27;45175;-50
2022/03/01 08:11:18;;;;;;;;;20.00;16.50;;;;;19.24;26.45;102153.78;5077638;28;45197;-49
2022/03/01 08:13:44;;;;;;;;;18.00;17.25;;;;;19.20;26.39;102146.03;5077833;27;45344;-54
2022/03/01 08:16:09;;;;;;;;;19.75;17.00;;;;;19.21;26.79;102145.97;5077532;27;46437;-50
2022/03/01 08:18:34;;;;;;;;;20.00;17.00;;;;;19.16;26.67;102146.09;5077384;27;45290;-54
2022/03/01 08:21:00;;;;;;;;;16.50;15.25;;;;;19.18;26.72;102147.84;5077602;27;45375;-55
2022/03/01 08:23:26;;;;;;;;;18.50;16.00;;;;;19.15;26.94;102157.53;5077597;27;45477;-55
2022/03/01 08:25:52;;;;;;;;;16.75;16.00;;;;;19.15;26.49;102148.78;5077142;28;45379;-52
2022/03/01 08:28:17;;;;;;;;;19.00;18.00;;;;;19.12;26.90;102143.63;5077278;27;45849;-51
2022/03/01 08:30:43;;;;;;;;;19.00;15.50;;;;;19.12;26.75;102147.13;5077430;27;45260;-53
2022/03/01 08:33:09;;;;;;;;;18.75;18.00;;;;;19.10;26.79;102141.03;5077829;28;45505;-55
2022/03/01 08:35:35;;;;;;;;;19.25;18.50;;;;;19.10;26.52;102148.94;5077008;27;46138;-59
2022/03/01 08:38:05;;;;;;;;;19.00;16.50;;;;;19.07;26.91;102142.91;5077253;27;45373;-52
2022/03/01 08:40:33;;;;;;;;;22.25;21.50;;;;;19.06;26.51;102149.06;5075913;27;45279;-54
2022/03/01 08:42:58;;;;;;;;;14.50;14.00;;;;;19.06;26.91;102149.91;5077348;27;45333;-55
2022/03/01 08:45:24;;;;;;;;;22.75;20.75;;;;;19.04;26.96;102138.56;5076890;27;45853;-52
2022/03/01 08:47:51;;;;;;;;;21.00;15.75;;;;;19.05;26.66;102149.97;5076904;27;45270;-56
2022/03/01 08:50:16;;;;;;;;;21.00;18.00;;;;;19.04;26.97;102156.13;5077093;27;45372;-54
2022/03/01 08:52:41;;;;;;;;;25.25;20.00;;;;;19.04;26.83;102145.59;5077579;27;45302;-49
2022/03/01 08:55:08;;;;;;;;;20.75;18.00;;;;;19.00;26.94;102143.06;5076735;27;45466;-51
2022/03/01 08:57:35;;;;;;;;;22.75;18.50;;;;;19.02;26.96;102148.25;5075620;28;46159;-54
2022/03/01 09:00:00;;;;;;;;;21.25;17.75;;;;;19.01;26.78;102157.06;5076957;27;45374;-56
2022/03/01 09:02:25;;;;;;;;;17.00;16.25;;;;;19.00;26.87;102161.44;5077060;27;45523;-52
2022/03/01 09:04:51;;;;;;;;;18.25;16.25;;;;;18.97;26.92;102156.28;5076620;27;45218;-54
2022/03/01 09:07:16;;;;;;;;;17.25;17.00;;;;;18.99;26.63;102164.13;5075361;28;45347;-52
2022/03/01 09:09:42;;;;;;;;;17.25;17.25;;;;;18.98;27.01;102162.41;5077219;27;45337;-53
2022/03/01 09:12:07;;;;;;;;;19.00;15.75;;;;;18.96;26.81;102169.47;5076925;27;45350;-55
2022/03/01 09:14:33;;;;;;;;;15.75;15.25;;;;;18.96;26.88;102169.47;5076295;27;46016;-55
2022/03/01 09:16:58;;;;;;;;;20.75;19.25;;;;;18.95;26.87;102173.88;5076681;27;45441;-52
2022/03/01 09:19:23;;;;;;;;;16.75;16.75;;;;;18.93;26.96;102164.25;5076346;27;45415;-51
2022/03/01 09:21:49;;;;;;;;;20.75;17.50;;;;;18.93;26.92;102166.88;5076927;27;45385;-53
2022/03/01 09:24:14;;;;;;;;;21.25;17.50;;;;;18.92;27.02;102168.66;5076662;27;45478;-55
2022/03/01 09:26:40;;;;;;;;;22.25;19.25;;;;;18.88;26.77;102161.75;5076491;27;45381;-53
2022/03/01 09:29:05;;;;;;;;;17.00;17.00;;;;;18.89;27.17;102158.22;5076592;27;45432;-52
2022/03/01 09:31:31;;;;;;;;;21.00;18.25;;;;;18.89;26.98;102157.38;5076504;27;45328;-55
2022/03/01 09:33:57;;;;;;;;;18.75;17.25;;;;;18.88;27.27;102158.28;5076206;27;45336;-52
2022/03/01 09:36:22;;;;;;;;;17.75;17.75;;;;;18.87;27.03;102152.16;5076407;27;45466;-51
2022/03/01 09:38:48;;;;;;;;;22.75;18.00;;;;;18.87;27.01;102154.78;5076436;27;45238;-54
2022/03/01 09:41:14;;;;;;;;;19.50;16.25;;;;;18.84;27.18;102142.59;5077001;28;45427;-55
2022/03/01 09:43:40;;;;;;;;;24.50;17.25;;;;;18.87;26.90;102141.63;5076203;27;46978;-54
2022/03/01 09:46:08;;;;;;;;;23.25;20.75;;;;;18.87;27.01;102146.88;5076234;27;45582;-51
2022/03/01 09:48:35;;;;;;;;;26.00;22.25;;;;;18.86;26.90;102132.03;5076428;27;45399;-48
2022/03/01 09:51:02;;;;;;;;;21.75;18.75;;;;;18.85;26.86;102133.81;5076500;27;45256;-50
2022/03/01 09:53:28;;;;;;;;;23.25;21.00;;;;;18.88;26.97;102140.72;5076094;28;46167;-55
2022/03/01 09:55:54;;;;;;;;;22.75;19.00;;;;;18.87;27.07;102136.38;5076258;27;45307;-56
2022/03/01 09:58:20;;;;;;;;;19.00;18.50;;;;;18.88;26.87;102145.13;5075045;28;45440;-55
2022/03/01 10:00:45;;;;;;;;;24.00;19.00;;;;;18.88;27.31;102151.25;5092330;27;45576;-52
2022/03/01 10:03:19;;;;;;;;;19.75;19.00;;;;;18.88;27.10;102153.03;5075858;27;47089;-54
2022/03/01 10:05:46;;;;;;;;;17.75;17.25;;;;;18.89;26.84;102154.75;5076212;27;45235;-53
2022/03/01 10:08:17;;;;;;;;;21.50;18.50;;;;;18.88;26.93;102155.66;5076194;27;45235;-54
2022/03/01 10:10:47;;;;;;;;;16.25;15.50;;;;;18.90;27.26;102157.31;5076627;27;45296;-55
2022/03/01 10:13:15;;;;;;;;;16.75;13.50;;;;;18.91;27.03;102158.16;5075836;27;46109;-55
2022/03/01 10:15:40;;;;;;;;;19.25;16.75;;;;;18.89;26.92;102157.38;5075773;27;45840;-54
2022/03/01 10:18:14;;;;;;;;;18.00;17.75;;;;;18.91;26.90;102160.78;5076156;27;45694;-57
2022/03/01 10:20:41;;;;;;;;;23.75;22.00;;;;;18.89;27.04;102166.09;5076208;27;45361;-54
2022/03/01 10:23:09;;;;;;;;;22.00;21.00;;;;;18.91;26.80;102168.69;5075750;27;45455;-56
2022/03/01 10:25:35;;;;;;;;;19.50;17.50;;;;;18.89;27.14;102163.47;5074300;27;45271;-53
2022/03/01 10:28:01;;;;;;;;;19.75;19.75;;;;;18.91;26.99;102166.06;5075869;27;45252;-54
2022/03/01 10:30:30;;;;;;;;;18.50;16.75;;;;;18.91;27.18;102152.91;5075912;28;45336;-52
2022/03/01 10:33:13;;;;;;;;;22.50;22.25;;;;;18.91;27.04;102152.91;5079151;27;45498;-54
2022/03/01 10:35:42;;;;;;;;;20.00;19.00;;;;;18.91;27.12;102147.66;5079194;27;45890;-55
2022/03/01 10:38:10;;;;;;;;;22.00;21.25;;;;;18.91;27.21;102142.41;5079079;27;45455;-53
2022/03/01 10:40:37;;;;;;;;;25.75;22.75;;;;;18.92;27.33;102131.88;5079402;27;45514;-55
2022/03/01 10:43:10;;;;;;;;;17.75;17.00;;;;;18.91;27.06;102134.53;5078925;27;46174;-53
2022/03/01 10:45:38;;;;;;;;;24.00;23.25;;;;;18.92;27.35;102137.13;5078910;27;45856;-57
2022/03/01 10:48:05;;;;;;;;;18.50;17.50;;;;;18.91;26.98;102139.78;5078964;27;45491;-55
2022/03/01 10:50:31;;;;;;;;;22.50;21.75;;;;;18.88;27.17;102142.50;5079235;27;45461;-54
2022/03/01 10:52:57;;;;;;;;;20.50;20.50;;;;;18.88;27.52;102135.47;5077327;27;46421;-55
2022/03/01 10:55:27;;;;;;;;;21.50;21.50;;;;;18.89;27.04;102131.09;5078836;27;45388;-55
2022/03/01 10:58:00;;;;;;;;;19.25;19.00;;;;;18.87;26.97;102132.91;5078758;27;45514;-54
2022/03/01 11:00:25;;;;;;;;;21.50;19.75;;;;;18.85;27.24;102128.56;5079006;27;45164;-56
2022/03/01 11:02:51;;;;;;;;;18.50;17.25;;;;;18.86;27.08;102129.41;5078594;27;46290;-55
2022/03/01 11:05:16;;;;;;;;;21.25;19.75;;;;;18.85;27.15;102125.09;5078824;27;45219;-55